Airport View

Enter AWOS ICAO identifier for current METAR.

ex. KFNL

KBAD 011156Z AUTO 01003KT 10SM CLR 13/11 A3010 RMK AO2 SLP195 T01270113 10160 20124 52019

1 Oct 2020 12:37

Other Area AWOS: KDTN - KSHV - KMNE - K3F3

TAF KBAD 011000Z 0110/0216 32008KT 9999 SKC QNH3005INS BECMG 0120/0121 01010G15KT 9999 SKC QNH3012INS BECMG 0202/0203 35005KT 9999 SKC QNH3019INS TX31/0121Z TN14/0112Z